createdAt,value
2023-01-06T00:02:36.621Z,102786.94
2023-01-06T00:05:42.153Z,102782.78
2023-01-06T00:08:48.753Z,102794.44
2023-01-06T00:11:54.183Z,102798.84
2023-01-06T00:14:59.329Z,102802.59
2023-01-06T00:18:04.448Z,102809.50
2023-01-06T00:21:10.099Z,102804.03
2023-01-06T00:24:16.687Z,102807.53
2023-01-06T00:27:21.875Z,102810.50
2023-01-06T00:30:27.121Z,102811.53
2023-01-06T00:33:32.293Z,102824.31
2023-01-06T00:36:37.592Z,102825.19
2023-01-06T00:39:44.670Z,102815.00
2023-01-06T00:42:50.770Z,102812.22
2023-01-06T00:45:55.926Z,102807.59
2023-01-06T00:49:06.345Z,102806.44
2023-01-06T00:52:12.435Z,102800.50
2023-01-06T00:55:19.302Z,102808.66
2023-01-06T00:58:24.705Z,102811.81
2023-01-06T01:01:30.045Z,102814.88
2023-01-06T01:04:36.444Z,102798.47
2023-01-06T01:07:41.808Z,102808.25
2023-01-06T01:10:48.441Z,102807.59
2023-01-06T01:13:53.952Z,102792.03
2023-01-06T01:16:59.362Z,102798.69
2023-01-06T01:20:07.164Z,102790.91
2023-01-06T01:23:14.559Z,102793.78
2023-01-06T01:26:20.967Z,102808.19
2023-01-06T01:29:26.030Z,102819.91
2023-01-06T01:32:31.241Z,102808.78
2023-01-06T01:35:36.418Z,102816.41
2023-01-06T01:38:41.832Z,102814.41
2023-01-06T01:41:48.704Z,102825.28
2023-01-06T01:45:00.003Z,102824.34
2023-01-06T01:48:08.314Z,102826.13
2023-01-06T01:51:17.282Z,102823.63
2023-01-06T01:54:28.793Z,102818.91
2023-01-06T01:57:38.718Z,102817.81
2023-01-06T02:00:45.440Z,102818.13
2023-01-06T02:03:55.418Z,102829.06
2023-01-06T02:07:02.213Z,102833.72
2023-01-06T02:10:13.208Z,102828.28
2023-01-06T02:13:21.605Z,102826.84
2023-01-06T02:16:32.518Z,102831.84
2023-01-06T02:20:08.459Z,102826.94
2023-01-06T02:23:40.884Z,102835.44
2023-01-06T02:27:05.524Z,102825.16
2023-01-06T02:30:41.465Z,102838.47
2023-01-06T02:33:58.365Z,102833.41
2023-01-06T02:37:09.877Z,102841.94
2023-01-06T02:40:27.531Z,102841.34
2023-01-06T02:43:46.689Z,102841.78
2023-01-06T02:47:06.105Z,102834.44
2023-01-06T02:50:24.034Z,102830.63
2023-01-06T02:53:38.171Z,102827.44
2023-01-06T02:56:49.424Z,102822.53
2023-01-06T03:00:06.367Z,102823.69
2023-01-06T03:03:19.358Z,102828.34
2023-01-06T03:06:29.833Z,102820.38
2023-01-06T03:09:40.044Z,102811.63
2023-01-06T03:12:53.121Z,102821.88
2023-01-06T03:16:00.223Z,102822.13
2023-01-06T03:19:08.426Z,102826.31
2023-01-06T03:22:17.306Z,102816.38
2023-01-06T03:25:23.958Z,102824.59
2023-01-06T03:28:30.029Z,102826.16
2023-01-06T03:31:42.175Z,102832.16
2023-01-06T03:35:00.533Z,102825.38
2023-01-06T03:38:16.228Z,102828.66
2023-01-06T03:41:49.207Z,102822.66
2023-01-06T03:44:59.316Z,102826.00
2023-01-06T03:48:11.399Z,102819.78
2023-01-06T03:51:26.949Z,102812.53
2023-01-06T03:54:41.971Z,102814.16
2023-01-06T03:57:51.371Z,102798.81
2023-01-06T04:00:57.786Z,102798.81
2023-01-06T04:04:04.329Z,102797.09
2023-01-06T04:07:13.439Z,102800.56
2023-01-06T04:10:25.796Z,102793.41
2023-01-06T04:13:36.208Z,102805.44
2023-01-06T04:16:45.685Z,102778.81
2023-01-06T04:19:53.728Z,102778.91
2023-01-06T04:23:01.124Z,102771.88
2023-01-06T04:26:16.536Z,102780.09
2023-01-06T04:29:29.192Z,102779.94
2023-01-06T04:32:35.980Z,102774.75
2023-01-06T04:35:46.537Z,102774.31
2023-01-06T04:38:56.000Z,102777.88
2023-01-06T04:42:04.387Z,102774.53
2023-01-06T04:45:12.150Z,102784.19
2023-01-06T04:48:18.347Z,102775.19
2023-01-06T04:51:24.323Z,102777.66
2023-01-06T04:54:30.025Z,102780.84
2023-01-06T04:57:40.180Z,102782.78
2023-01-06T05:00:45.823Z,102773.84
2023-01-06T05:03:52.484Z,102773.16
2023-01-06T05:07:00.748Z,102772.47
2023-01-06T05:10:09.994Z,102781.00
2023-01-06T05:13:18.601Z,102769.16
2023-01-06T05:16:26.755Z,102761.13
2023-01-06T05:19:34.158Z,102753.63
2023-01-06T05:22:40.415Z,102733.97
2023-01-06T05:25:46.423Z,102736.25
2023-01-06T05:28:54.526Z,102738.19
2023-01-06T05:32:00.555Z,102731.81
2023-01-06T05:35:07.680Z,102737.75
2023-01-06T05:38:15.721Z,102738.59
2023-01-06T05:41:22.269Z,102734.09
2023-01-06T05:44:29.459Z,102730.25
2023-01-06T05:47:35.801Z,102741.38
2023-01-06T05:50:42.174Z,102735.13
2023-01-06T05:53:50.319Z,102729.94
2023-01-06T05:56:56.451Z,102718.00
2023-01-06T06:00:05.890Z,102711.22
2023-01-06T06:03:17.790Z,102708.84
2023-01-06T06:06:25.551Z,102716.81
2023-01-06T06:09:33.391Z,102712.03
2023-01-06T06:12:39.217Z,102703.84
2023-01-06T06:15:46.709Z,102698.13
2023-01-06T06:18:55.344Z,102693.66
2023-01-06T06:22:03.017Z,102701.91
2023-01-06T06:25:09.895Z,102702.38
2023-01-06T06:28:15.770Z,102698.81
2023-01-06T06:31:33.526Z,102700.69
2023-01-06T06:34:39.639Z,102693.81
2023-01-06T06:37:46.195Z,102689.13
2023-01-06T06:40:51.888Z,102681.16
2023-01-06T06:43:57.341Z,102683.84
2023-01-06T06:47:05.349Z,102677.13
2023-01-06T06:50:15.455Z,102677.28
2023-01-06T06:53:21.943Z,102677.81
2023-01-06T06:56:30.169Z,102679.22
2023-01-06T06:59:36.404Z,102669.38
2023-01-06T07:02:44.194Z,102670.47
2023-01-06T07:05:51.460Z,102670.84
2023-01-06T07:09:00.288Z,102666.72
2023-01-06T07:12:08.747Z,102669.78
2023-01-06T07:15:16.067Z,102677.50
2023-01-06T07:18:23.455Z,102668.97
2023-01-06T07:21:30.000Z,102656.00
2023-01-06T07:24:36.888Z,102652.63
2023-01-06T07:27:42.515Z,102652.47
2023-01-06T07:30:50.139Z,102644.16
2023-01-06T07:33:57.695Z,102649.09
2023-01-06T07:37:03.603Z,102632.69
2023-01-06T07:40:11.643Z,102634.66
2023-01-06T07:43:17.554Z,102641.03
2023-01-06T07:46:23.943Z,102629.22
2023-01-06T07:49:32.681Z,102634.63
2023-01-06T07:52:38.735Z,102635.16
2023-01-06T07:55:45.378Z,102643.53
2023-01-06T07:58:51.676Z,102634.97
2023-01-06T08:01:57.903Z,102642.13
2023-01-06T08:05:05.861Z,102640.56
2023-01-06T08:08:14.403Z,102645.47
2023-01-06T08:11:21.555Z,102644.34
2023-01-06T08:14:27.051Z,102639.22
2023-01-06T08:17:36.037Z,102646.34
2023-01-06T08:20:43.788Z,102639.13
2023-01-06T08:23:49.705Z,102639.94
2023-01-06T08:26:56.164Z,102640.72
2023-01-06T08:30:06.964Z,102631.69
2023-01-06T08:33:15.572Z,102635.25
2023-01-06T08:36:27.309Z,102638.66
2023-01-06T08:39:33.531Z,102637.84
2023-01-06T08:42:39.480Z,102639.84
2023-01-06T08:45:46.021Z,102640.09
2023-01-06T08:48:51.601Z,102638.91
2023-01-06T08:52:00.551Z,102637.69
2023-01-06T08:55:06.760Z,102636.75
2023-01-06T08:58:23.562Z,102641.44
2023-01-06T09:01:33.214Z,102633.75
2023-01-06T09:04:38.561Z,102645.13
2023-01-06T09:07:47.056Z,102636.41
2023-01-06T09:10:52.715Z,102632.75
2023-01-06T09:13:58.854Z,102623.78
2023-01-06T09:17:04.878Z,102626.41
2023-01-06T09:20:13.786Z,102625.56
2023-01-06T09:23:22.402Z,102627.50
2023-01-06T09:26:28.338Z,102625.88
2023-01-06T09:29:34.600Z,102628.63
2023-01-06T09:32:41.648Z,102627.19
2023-01-06T09:35:48.201Z,102628.22
2023-01-06T09:38:55.961Z,102609.84
2023-01-06T09:42:20.622Z,102608.25
2023-01-06T09:45:34.548Z,102613.28
2023-01-06T09:48:42.913Z,102592.84
2023-01-06T09:51:49.924Z,102608.38
2023-01-06T09:55:01.078Z,102601.50
2023-01-06T09:58:10.966Z,102598.78
2023-01-06T10:01:23.562Z,102596.50
2023-01-06T10:04:31.960Z,102594.25
2023-01-06T10:07:43.820Z,102589.34
2023-01-06T10:11:00.273Z,102591.28
2023-01-06T10:14:14.228Z,102581.03
2023-01-06T10:17:59.187Z,102580.38
2023-01-06T10:21:12.142Z,102571.72
2023-01-06T10:24:36.358Z,102573.31
2023-01-06T10:27:51.107Z,102550.09
2023-01-06T10:30:59.607Z,102556.28
2023-01-06T10:34:06.443Z,102555.88
2023-01-06T10:37:16.715Z,102558.19
2023-01-06T10:40:26.668Z,102547.34
2023-01-06T10:43:34.177Z,102552.81
2023-01-06T10:46:42.126Z,102546.56
2023-01-06T10:49:48.486Z,102543.94
2023-01-06T10:52:55.493Z,102539.38
2023-01-06T10:56:07.868Z,102541.50
2023-01-06T10:59:16.179Z,102532.09
2023-01-06T11:02:27.828Z,102517.63
2023-01-06T11:05:36.437Z,102524.28
2023-01-06T11:08:44.045Z,102510.19
2023-01-06T11:11:51.474Z,102515.75
2023-01-06T11:15:04.209Z,102491.75
2023-01-06T11:18:22.145Z,102498.78
2023-01-06T11:21:41.894Z,102491.69
2023-01-06T11:24:54.107Z,102489.69
2023-01-06T11:28:21.287Z,102495.00
2023-01-06T11:31:31.414Z,102478.31
2023-01-06T11:34:38.950Z,102483.19
2023-01-06T11:37:46.525Z,102453.50
2023-01-06T11:40:57.956Z,102461.63
2023-01-06T11:44:11.189Z,102447.31
2023-01-06T11:47:20.438Z,102463.41
2023-01-06T11:50:28.717Z,102454.88
2023-01-06T11:53:34.916Z,102452.69
2023-01-06T11:56:41.528Z,102441.41
2023-01-06T12:00:18.170Z,102445.38
2023-01-06T12:03:32.458Z,102444.72
2023-01-06T12:06:40.809Z,102435.38
2023-01-06T12:09:49.953Z,102425.88
2023-01-06T12:12:56.086Z,102427.28
2023-01-06T12:16:05.731Z,102411.16
2023-01-06T12:19:19.604Z,102418.03
2023-01-06T12:22:37.690Z,102408.88
2023-01-06T12:25:53.508Z,102405.47
2023-01-06T12:29:03.615Z,102403.34
2023-01-06T12:32:15.974Z,102398.97
2023-01-06T12:35:30.049Z,102404.44
2023-01-06T12:38:44.103Z,102398.53
2023-01-06T12:41:53.815Z,102399.31
2023-01-06T12:45:07.111Z,102385.66
2023-01-06T12:48:19.726Z,102377.06
2023-01-06T12:51:32.605Z,102398.22
2023-01-06T12:54:41.547Z,102374.63
2023-01-06T12:57:54.237Z,102378.91
2023-01-06T13:01:02.861Z,102384.94
2023-01-06T13:04:36.252Z,102370.22
2023-01-06T13:07:50.526Z,102352.31
2023-01-06T13:11:05.358Z,102343.94
2023-01-06T13:14:19.324Z,102337.16
2023-01-06T13:17:30.367Z,102338.31
2023-01-06T13:20:40.727Z,102321.94
2023-01-06T13:24:11.835Z,102325.03
2023-01-06T13:27:29.309Z,102316.38
2023-01-06T13:31:04.149Z,102313.16
2023-01-06T13:34:48.109Z,102306.78
2023-01-06T13:38:16.393Z,102307.75
2023-01-06T13:41:27.484Z,102297.78
2023-01-06T13:44:34.656Z,102300.56
2023-01-06T13:47:41.845Z,102285.56
2023-01-06T13:50:49.026Z,102282.13
2023-01-06T13:57:49.289Z,102283.41
2023-01-06T14:01:10.148Z,102255.91
2023-01-06T14:04:50.383Z,102266.91
2023-01-06T14:07:58.542Z,102266.63
2023-01-06T14:11:08.365Z,102266.31
2023-01-06T14:14:28.638Z,102266.97
2023-01-06T14:17:46.890Z,102260.91
2023-01-06T14:21:05.918Z,102254.91
2023-01-06T14:24:26.109Z,102251.25
2023-01-06T14:28:08.253Z,102258.47
2023-01-06T14:31:41.736Z,102252.25
2023-01-06T14:34:57.893Z,102258.25
2023-01-06T14:38:07.339Z,102253.53
2023-01-06T14:41:24.798Z,102256.19
2023-01-06T14:44:46.101Z,102247.53
2023-01-06T14:47:57.195Z,102239.09
2023-01-06T14:51:19.119Z,102244.13
2023-01-06T14:54:30.621Z,102240.97
2023-01-06T14:57:38.811Z,102240.22
2023-01-06T15:00:48.828Z,102247.69
2023-01-06T15:04:08.549Z,102261.00
2023-01-06T15:07:23.227Z,102260.84
2023-01-06T15:14:09.601Z,102258.69
2023-01-06T15:17:46.290Z,102260.19
2023-01-06T15:21:07.869Z,102266.84
2023-01-06T15:24:22.377Z,102286.97
2023-01-06T15:27:28.352Z,102277.84
2023-01-06T15:30:37.134Z,102279.13
2023-01-06T15:33:45.068Z,102273.41
2023-01-06T15:36:52.161Z,102274.28
2023-01-06T15:43:45.557Z,102273.19
2023-01-06T15:46:52.641Z,102277.41
2023-01-06T15:53:32.720Z,102271.25
2023-01-06T15:56:47.180Z,102275.00
2023-01-06T16:00:11.840Z,102268.03
2023-01-06T16:03:20.956Z,102272.41
2023-01-06T16:06:32.688Z,102257.31
2023-01-06T16:09:55.935Z,102258.94
2023-01-06T16:13:29.143Z,102259.63
2023-01-06T16:16:42.266Z,102258.81
2023-01-06T16:19:52.742Z,102256.59
2023-01-06T16:26:39.006Z,102252.91
2023-01-06T16:34:06.173Z,102257.91
2023-01-06T16:37:16.051Z,102247.47
2023-01-06T16:40:27.819Z,102246.22
2023-01-06T16:43:35.682Z,102242.41
2023-01-06T16:46:45.939Z,102237.50
2023-01-06T16:49:53.896Z,102244.78
2023-01-06T16:53:19.273Z,102234.84
2023-01-06T16:56:27.521Z,102213.72
2023-01-06T16:59:40.839Z,102232.41
2023-01-06T17:03:17.465Z,102225.56
2023-01-06T17:06:27.848Z,102231.41
2023-01-06T17:09:40.836Z,102221.19
2023-01-06T17:13:06.192Z,102230.56
2023-01-06T17:16:21.633Z,102229.28
2023-01-06T17:19:34.799Z,102223.38
2023-01-06T17:22:42.832Z,102224.13
2023-01-06T17:26:09.544Z,102216.09
2023-01-06T17:29:18.810Z,102231.34
2023-01-06T17:32:33.246Z,102210.84
2023-01-06T17:35:51.673Z,102215.09
2023-01-06T17:39:04.452Z,102201.72
2023-01-06T17:42:28.535Z,102203.84
2023-01-06T17:45:47.468Z,102204.59
2023-01-06T17:48:58.360Z,102190.97
2023-01-06T17:52:24.632Z,102211.25
2023-01-06T17:55:46.819Z,102197.34
2023-01-06T17:58:53.814Z,102190.06
2023-01-06T18:02:00.827Z,102187.28
2023-01-06T18:09:22.300Z,102182.22
2023-01-06T18:12:32.037Z,102173.22
2023-01-06T18:15:56.841Z,102163.59
2023-01-06T18:19:36.601Z,102177.94
2023-01-06T18:22:42.664Z,102175.44
2023-01-06T18:25:53.113Z,102161.59
2023-01-06T18:29:01.357Z,102161.41
2023-01-06T18:32:29.149Z,102162.28
2023-01-06T18:35:35.007Z,102158.44
2023-01-06T18:38:42.175Z,102153.44
2023-01-06T18:41:49.588Z,102152.69
2023-01-06T18:45:04.113Z,102147.63
2023-01-06T18:48:16.472Z,102148.31
2023-01-06T18:51:24.175Z,102155.06
2023-01-06T18:54:29.856Z,102155.75
2023-01-06T18:57:37.347Z,102142.63
2023-01-06T19:00:45.866Z,102133.34
2023-01-06T19:03:59.783Z,102150.00
2023-01-06T19:07:11.213Z,102144.59
2023-01-06T19:10:28.090Z,102140.53
2023-01-06T19:13:35.203Z,102130.25
2023-01-06T19:16:51.355Z,102131.09
2023-01-06T19:19:57.979Z,102119.59
2023-01-06T19:23:12.989Z,102126.88
2023-01-06T19:26:25.551Z,102128.34
2023-01-06T19:29:35.315Z,102138.25
2023-01-06T19:32:40.648Z,102140.53
2023-01-06T19:35:46.724Z,102145.25
2023-01-06T19:38:52.183Z,102139.00
2023-01-06T19:42:02.008Z,102140.75
2023-01-06T19:45:21.555Z,102142.63
2023-01-06T19:48:28.310Z,102149.97
2023-01-06T19:51:34.627Z,102137.53
2023-01-06T19:54:40.540Z,102135.00
2023-01-06T19:57:48.565Z,102143.75
2023-01-06T20:00:55.952Z,102136.44
2023-01-06T20:04:01.472Z,102144.72
2023-01-06T20:07:07.448Z,102145.06
2023-01-06T20:10:14.416Z,102149.28
2023-01-06T20:13:20.485Z,102147.38
2023-01-06T20:16:27.418Z,102162.00
2023-01-06T20:19:33.071Z,102148.03
2023-01-06T20:22:38.884Z,102160.63
2023-01-06T20:25:44.691Z,102141.19
2023-01-06T20:28:50.412Z,102145.06
2023-01-06T20:31:57.902Z,102135.25
2023-01-06T20:35:03.462Z,102126.50
2023-01-06T20:38:09.113Z,102138.09
2023-01-06T20:41:17.174Z,102133.22
2023-01-06T20:44:25.062Z,102133.53
2023-01-06T20:47:36.134Z,102129.72
2023-01-06T20:50:44.866Z,102134.44
2023-01-06T20:53:50.403Z,102128.94
2023-01-06T20:56:57.030Z,102132.75
2023-01-06T21:00:03.760Z,102140.84
2023-01-06T21:03:11.587Z,102133.88
2023-01-06T21:06:20.289Z,102143.00
2023-01-06T21:09:29.315Z,102136.38
2023-01-06T21:12:37.633Z,102135.31
2023-01-06T21:15:43.724Z,102132.22
2023-01-06T21:18:52.411Z,102116.94
2023-01-06T21:22:00.723Z,102116.78
2023-01-06T21:25:08.195Z,102107.81
2023-01-06T21:28:14.143Z,102112.13
2023-01-06T21:31:23.082Z,102112.03
2023-01-06T21:34:31.372Z,102107.41
2023-01-06T21:37:38.441Z,102110.63
2023-01-06T21:40:44.190Z,102113.38
2023-01-06T21:43:49.015Z,102110.22
2023-01-06T21:46:54.837Z,102106.94
2023-01-06T21:50:01.636Z,102100.56
2023-01-06T21:53:07.681Z,102085.97
2023-01-06T21:56:14.804Z,102086.13
2023-01-06T21:59:20.462Z,102074.03
2023-01-06T22:02:27.353Z,102084.53
2023-01-06T22:05:34.200Z,102086.47
2023-01-06T22:08:40.136Z,102076.63
2023-01-06T22:11:47.531Z,102075.59
2023-01-06T22:14:54.196Z,102080.59
2023-01-06T22:18:02.018Z,102074.13
2023-01-06T22:21:09.628Z,102082.63
2023-01-06T22:24:17.125Z,102080.25
2023-01-06T22:27:23.164Z,102074.59
2023-01-06T22:30:30.762Z,102073.47
2023-01-06T22:33:37.104Z,102088.09
2023-01-06T22:36:43.896Z,102079.47
2023-01-06T22:39:49.716Z,102078.88
2023-01-06T22:42:55.542Z,102074.66
2023-01-06T22:46:00.989Z,102081.25
2023-01-06T22:49:06.850Z,102074.31
2023-01-06T22:52:16.357Z,102073.16
2023-01-06T22:55:22.360Z,102071.50
2023-01-06T22:58:28.025Z,102071.69
2023-01-06T23:01:33.849Z,102066.50
2023-01-06T23:04:39.523Z,102062.59
2023-01-06T23:07:47.311Z,102055.28
2023-01-06T23:10:53.635Z,102058.00
2023-01-06T23:14:00.572Z,102058.53
2023-01-06T23:17:06.832Z,102038.84
2023-01-06T23:20:14.955Z,102040.91
2023-01-06T23:23:22.046Z,102047.66
2023-01-06T23:26:29.735Z,102043.19
2023-01-06T23:29:35.403Z,102049.72
2023-01-06T23:32:41.323Z,102044.69
2023-01-06T23:35:46.661Z,102036.41
2023-01-06T23:38:53.991Z,102028.09
2023-01-06T23:41:59.285Z,102029.00
2023-01-06T23:45:04.992Z,102026.16
2023-01-06T23:48:11.901Z,102028.81
2023-01-06T23:51:18.624Z,102027.88
2023-01-06T23:54:25.745Z,102027.47
2023-01-06T23:57:31.343Z,102025.97
